aviador You're here:

LFOK Decoded Metar

CHALONS in FRANCE
Report Time2017-09-22 15:00:00
UTC Time2017-09-22 15:22:54
Flight Rules vfr VFR
Wind300° at 05 kt
W.Decomp.*RWY 28: 4.7 kt HW 1.7 kt RCW
W.Rank300° ranks 27
Current wind is below 300° avg. (7.7)
Visibility9999 m
Phenomena:N/A
Clouds:Scattered 039 Hf
Broken 047 Hf
Broken 054 Hf
Expected CloudBase > 3,200 ft AGL from Temp-Dew spread
Ceiling4,700 ft
Temp19°C (ISA +5)
Dew Point11°C (60% RH)
AAT17.5°C
QNH1021 hPa
Density Alt1,033 ft
Elevation531 ft
Report Wrong Elevation
Raw Report
LFOK 221500Z AUTO 30005KT 9999 SCT039 BKN047 BKN054 19/11 Q1021
NOSIG=

Extra information for LFOK:More info

Metar Taf Metar & Taf Last 4 Metars F.Rules Stats Wind Profile Meteogram Temp Stats Airport Information Weather charts Add Link Nearby VenuesMetar ALERT Operation Metar Decoded Social comments